sensor_id;sensor_type;location;lat;lon;timestamp;temperature;humidity
30594;DHT22;33199;47.590;8.300;2023-04-24T00:00:08;14.90;71.80
30594;DHT22;33199;47.590;8.300;2023-04-24T00:02:38;14.90;71.90
30594;DHT22;33199;47.590;8.300;2023-04-24T00:05:07;14.90;71.90
30594;DHT22;33199;47.590;8.300;2023-04-24T00:07:34;14.90;71.90
30594;DHT22;33199;47.590;8.300;2023-04-24T00:09:59;14.90;71.90
30594;DHT22;33199;47.590;8.300;2023-04-24T00:12:25;14.90;71.90
30594;DHT22;33199;47.590;8.300;2023-04-24T00:14:52;14.90;71.80
30594;DHT22;33199;47.590;8.300;2023-04-24T00:17:17;14.90;71.90
30594;DHT22;33199;47.590;8.300;2023-04-24T00:19:46;14.90;71.90
30594;DHT22;33199;47.590;8.300;2023-04-24T00:22:12;14.90;71.90
30594;DHT22;33199;47.590;8.300;2023-04-24T00:24:39;14.90;71.90
30594;DHT22;33199;47.590;8.300;2023-04-24T00:27:05;14.90;71.90
30594;DHT22;33199;47.590;8.300;2023-04-24T00:29:30;14.90;71.90
30594;DHT22;33199;47.590;8.300;2023-04-24T00:31:56;14.80;71.80
30594;DHT22;33199;47.590;8.300;2023-04-24T00:34:22;14.90;71.90
30594;DHT22;33199;47.590;8.300;2023-04-24T00:36:47;14.90;71.90
30594;DHT22;33199;47.590;8.300;2023-04-24T00:39:15;14.90;71.90
30594;DHT22;33199;47.590;8.300;2023-04-24T00:41:41;14.80;71.90
30594;DHT22;33199;47.590;8.300;2023-04-24T00:44:07;14.80;71.70
30594;DHT22;33199;47.590;8.300;2023-04-24T00:46:32;14.80;71.70
30594;DHT22;33199;47.590;8.300;2023-04-24T00:48:59;14.80;71.80
30594;DHT22;33199;47.590;8.300;2023-04-24T00:51:24;14.80;71.80
30594;DHT22;33199;47.590;8.300;2023-04-24T00:53:50;14.80;71.70
30594;DHT22;33199;47.590;8.300;2023-04-24T00:56:16;14.80;71.80
30594;DHT22;33199;47.590;8.300;2023-04-24T00:58:42;14.80;71.70
30594;DHT22;33199;47.590;8.300;2023-04-24T01:01:09;14.80;71.70
30594;DHT22;33199;47.590;8.300;2023-04-24T01:03:37;14.80;71.70
30594;DHT22;33199;47.590;8.300;2023-04-24T01:06:03;14.80;71.70
30594;DHT22;33199;47.590;8.300;2023-04-24T01:08:30;14.80;71.80
30594;DHT22;33199;47.590;8.300;2023-04-24T01:10:56;14.80;71.70
30594;DHT22;33199;47.590;8.300;2023-04-24T01:13:22;14.80;71.70
30594;DHT22;33199;47.590;8.300;2023-04-24T01:15:48;14.80;71.70
30594;DHT22;33199;47.590;8.300;2023-04-24T01:18:14;14.80;71.70
30594;DHT22;33199;47.590;8.300;2023-04-24T01:20:41;14.80;71.70
30594;DHT22;33199;47.590;8.300;2023-04-24T01:23:07;14.80;71.70
30594;DHT22;33199;47.590;8.300;2023-04-24T01:25:33;14.80;71.70
30594;DHT22;33199;47.590;8.300;2023-04-24T01:28:00;14.80;71.70
30594;DHT22;33199;47.590;8.300;2023-04-24T01:30:26;14.80;71.70
30594;DHT22;33199;47.590;8.300;2023-04-24T01:32:53;14.80;71.70
30594;DHT22;33199;47.590;8.300;2023-04-24T01:35:19;14.80;71.70
30594;DHT22;33199;47.590;8.300;2023-04-24T01:37:46;14.80;71.70
30594;DHT22;33199;47.590;8.300;2023-04-24T01:40:12;14.80;71.70
30594;DHT22;33199;47.590;8.300;2023-04-24T01:42:38;14.80;71.70
30594;DHT22;33199;47.590;8.300;2023-04-24T01:45:04;14.80;71.70
30594;DHT22;33199;47.590;8.300;2023-04-24T01:47:31;14.80;71.80
30594;DHT22;33199;47.590;8.300;2023-04-24T01:49:57;14.70;71.60
30594;DHT22;33199;47.590;8.300;2023-04-24T01:52:23;14.80;71.70
30594;DHT22;33199;47.590;8.300;2023-04-24T01:54:49;14.70;71.60
30594;DHT22;33199;47.590;8.300;2023-04-24T01:57:16;14.70;71.60
30594;DHT22;33199;47.590;8.300;2023-04-24T01:59:42;14.70;71.60
30594;DHT22;33199;47.590;8.300;2023-04-24T02:02:09;14.70;72.40
30594;DHT22;33199;47.590;8.300;2023-04-24T02:04:34;14.70;71.60
30594;DHT22;33199;47.590;8.300;2023-04-24T02:07:00;14.80;71.70
30594;DHT22;33199;47.590;8.300;2023-04-24T02:09:25;14.70;71.60
30594;DHT22;33199;47.590;8.300;2023-04-24T02:11:52;14.70;71.60
30594;DHT22;33199;47.590;8.300;2023-04-24T02:14:19;14.70;71.60
30594;DHT22;33199;47.590;8.300;2023-04-24T02:16:45;14.70;71.60
30594;DHT22;33199;47.590;8.300;2023-04-24T02:19:11;14.70;71.70
30594;DHT22;33199;47.590;8.300;2023-04-24T02:21:36;14.70;71.60
30594;DHT22;33199;47.590;8.300;2023-04-24T02:24:02;14.70;71.60
30594;DHT22;33199;47.590;8.300;2023-04-24T02:26:28;14.70;71.60
30594;DHT22;33199;47.590;8.300;2023-04-24T02:28:53;14.70;71.60
30594;DHT22;33199;47.590;8.300;2023-04-24T02:31:20;14.70;71.60
30594;DHT22;33199;47.590;8.300;2023-04-24T02:33:46;14.70;71.60
30594;DHT22;33199;47.590;8.300;2023-04-24T02:36:12;14.70;71.60
30594;DHT22;33199;47.590;8.300;2023-04-24T02:38:38;14.70;71.60
30594;DHT22;33199;47.590;8.300;2023-04-24T02:41:04;14.70;71.60
30594;DHT22;33199;47.590;8.300;2023-04-24T02:43:32;14.70;71.60
30594;DHT22;33199;47.590;8.300;2023-04-24T02:45:58;14.70;71.70
30594;DHT22;33199;47.590;8.300;2023-04-24T02:48:25;14.70;71.60
30594;DHT22;33199;47.590;8.300;2023-04-24T02:50:50;14.60;71.50
30594;DHT22;33199;47.590;8.300;2023-04-24T02:53:16;14.60;71.50
30594;DHT22;33199;47.590;8.300;2023-04-24T02:55:43;14.60;71.60
30594;DHT22;33199;47.590;8.300;2023-04-24T02:58:08;14.60;71.50
30594;DHT22;33199;47.590;8.300;2023-04-24T03:00:34;14.60;71.50
30594;DHT22;33199;47.590;8.300;2023-04-24T03:02:59;14.60;71.60
30594;DHT22;33199;47.590;8.300;2023-04-24T03:05:25;14.60;71.50
30594;DHT22;33199;47.590;8.300;2023-04-24T03:07:52;14.60;71.50
30594;DHT22;33199;47.590;8.300;2023-04-24T03:10:18;14.60;71.60
30594;DHT22;33199;47.590;8.300;2023-04-24T03:12:44;14.60;71.50
30594;DHT22;33199;47.590;8.300;2023-04-24T03:15:09;14.60;71.50
30594;DHT22;33199;47.590;8.300;2023-04-24T03:17:35;14.60;71.50
30594;DHT22;33199;47.590;8.300;2023-04-24T03:20:02;14.60;71.60
30594;DHT22;33199;47.590;8.300;2023-04-24T03:22:28;14.60;71.50
30594;DHT22;33199;47.590;8.300;2023-04-24T03:24:53;14.60;71.50
30594;DHT22;33199;47.590;8.300;2023-04-24T03:27:20;14.60;71.60
30594;DHT22;33199;47.590;8.300;2023-04-24T03:29:45;14.60;71.60
30594;DHT22;33199;47.590;8.300;2023-04-24T03:32:11;14.50;71.50
30594;DHT22;33199;47.590;8.300;2023-04-24T03:34:37;14.60;71.50
30594;DHT22;33199;47.590;8.300;2023-04-24T03:37:02;14.60;71.60
30594;DHT22;33199;47.590;8.300;2023-04-24T03:39:28;14.60;71.60
30594;DHT22;33199;47.590;8.300;2023-04-24T03:41:54;14.60;71.50
30594;DHT22;33199;47.590;8.300;2023-04-24T03:44:21;14.60;71.60
30594;DHT22;33199;47.590;8.300;2023-04-24T03:46:47;14.60;71.60
30594;DHT22;33199;47.590;8.300;2023-04-24T03:49:13;14.50;71.50
30594;DHT22;33199;47.590;8.300;2023-04-24T03:51:39;14.50;71.40
30594;DHT22;33199;47.590;8.300;2023-04-24T03:54:05;14.60;71.60
30594;DHT22;33199;47.590;8.300;2023-04-24T03:56:30;14.60;71.60
30594;DHT22;33199;47.590;8.300;2023-04-24T03:58:56;14.60;71.50
30594;DHT22;33199;47.590;8.300;2023-04-24T04:01:22;14.60;71.50
30594;DHT22;33199;47.590;8.300;2023-04-24T04:03:48;14.50;71.50
30594;DHT22;33199;47.590;8.300;2023-04-24T04:06:14;14.50;71.60
30594;DHT22;33199;47.590;8.300;2023-04-24T04:08:39;14.50;71.50
30594;DHT22;33199;47.590;8.300;2023-04-24T04:11:05;14.50;71.50
30594;DHT22;33199;47.590;8.300;2023-04-24T04:13:31;14.50;71.50
30594;DHT22;33199;47.590;8.300;2023-04-24T04:15:57;14.50;71.50
30594;DHT22;33199;47.590;8.300;2023-04-24T04:18:22;14.50;71.50
30594;DHT22;33199;47.590;8.300;2023-04-24T04:20:48;14.50;71.50
30594;DHT22;33199;47.590;8.300;2023-04-24T04:23:13;14.50;71.50
30594;DHT22;33199;47.590;8.300;2023-04-24T04:25:39;14.50;71.50
30594;DHT22;33199;47.590;8.300;2023-04-24T04:28:05;14.50;71.50
30594;DHT22;33199;47.590;8.300;2023-04-24T04:30:30;14.50;71.60
30594;DHT22;33199;47.590;8.300;2023-04-24T04:32:58;14.50;71.50
30594;DHT22;33199;47.590;8.300;2023-04-24T04:35:24;14.50;71.50
30594;DHT22;33199;47.590;8.300;2023-04-24T04:37:50;14.50;71.50
30594;DHT22;33199;47.590;8.300;2023-04-24T04:40:16;14.50;71.50
30594;DHT22;33199;47.590;8.300;2023-04-24T04:42:42;14.50;71.50
30594;DHT22;33199;47.590;8.300;2023-04-24T04:45:11;14.50;71.60
30594;DHT22;33199;47.590;8.300;2023-04-24T04:47:37;14.50;71.60
30594;DHT22;33199;47.590;8.300;2023-04-24T04:50:03;14.50;71.60
30594;DHT22;33199;47.590;8.300;2023-04-24T04:52:32;14.40;71.60
30594;DHT22;33199;47.590;8.300;2023-04-24T04:54:57;14.40;71.50
30594;DHT22;33199;47.590;8.300;2023-04-24T04:57:23;14.40;69.70
30594;DHT22;33199;47.590;8.300;2023-04-24T04:59:48;14.30;70.10
30594;DHT22;33199;47.590;8.300;2023-04-24T05:02:14;14.20;70.50
30594;DHT22;33199;47.590;8.300;2023-04-24T05:04:40;14.20;70.80
30594;DHT22;33199;47.590;8.300;2023-04-24T05:07:05;14.30;70.90
30594;DHT22;33199;47.590;8.300;2023-04-24T05:09:31;14.20;70.80
30594;DHT22;33199;47.590;8.300;2023-04-24T05:11:57;14.20;71.00
30594;DHT22;33199;47.590;8.300;2023-04-24T05:14:23;14.20;71.10
30594;DHT22;33199;47.590;8.300;2023-04-24T05:16:48;14.30;71.20
30594;DHT22;33199;47.590;8.300;2023-04-24T05:19:14;14.30;71.30
30594;DHT22;33199;47.590;8.300;2023-04-24T05:21:40;14.30;71.30
30594;DHT22;33199;47.590;8.300;2023-04-24T05:24:06;14.30;72.20
30594;DHT22;33199;47.590;8.300;2023-04-24T05:26:32;14.30;71.40
30594;DHT22;33199;47.590;8.300;2023-04-24T05:28:58;14.30;71.40
30594;DHT22;33199;47.590;8.300;2023-04-24T05:31:23;14.20;71.30
30594;DHT22;33199;47.590;8.300;2023-04-24T05:33:49;14.30;71.50
30594;DHT22;33199;47.590;8.300;2023-04-24T05:36:15;14.30;71.50
30594;DHT22;33199;47.590;8.300;2023-04-24T05:38:40;14.20;71.50
30594;DHT22;33199;47.590;8.300;2023-04-24T05:41:06;14.20;71.50
30594;DHT22;33199;47.590;8.300;2023-04-24T05:43:31;14.30;71.50
30594;DHT22;33199;47.590;8.300;2023-04-24T05:45:57;14.20;71.50
30594;DHT22;33199;47.590;8.300;2023-04-24T05:48:22;14.30;71.50
30594;DHT22;33199;47.590;8.300;2023-04-24T05:50:48;14.30;71.60
30594;DHT22;33199;47.590;8.300;2023-04-24T05:53:14;14.20;71.50
30594;DHT22;33199;47.590;8.300;2023-04-24T05:55:40;14.30;71.60
30594;DHT22;33199;47.590;8.300;2023-04-24T05:58:05;14.20;71.50
30594;DHT22;33199;47.590;8.300;2023-04-24T06:00:31;14.20;71.60
30594;DHT22;33199;47.590;8.300;2023-04-24T06:02:58;14.20;71.60
30594;DHT22;33199;47.590;8.300;2023-04-24T06:05:24;14.20;71.60
30594;DHT22;33199;47.590;8.300;2023-04-24T06:07:50;14.20;71.60
30594;DHT22;33199;47.590;8.300;2023-04-24T06:10:16;14.20;71.60
30594;DHT22;33199;47.590;8.300;2023-04-24T06:12:42;14.20;71.70
30594;DHT22;33199;47.590;8.300;2023-04-24T06:15:08;14.20;71.70
30594;DHT22;33199;47.590;8.300;2023-04-24T06:17:34;14.20;71.70
30594;DHT22;33199;47.590;8.300;2023-04-24T06:19:59;14.20;71.60
30594;DHT22;33199;47.590;8.300;2023-04-24T06:22:25;14.20;71.70
30594;DHT22;33199;47.590;8.300;2023-04-24T06:24:50;14.20;71.70
30594;DHT22;33199;47.590;8.300;2023-04-24T06:27:16;14.20;71.70
30594;DHT22;33199;47.590;8.300;2023-04-24T06:29:42;14.20;71.70
30594;DHT22;33199;47.590;8.300;2023-04-24T06:32:07;14.20;71.70
30594;DHT22;33199;47.590;8.300;2023-04-24T06:34:33;14.20;71.70
30594;DHT22;33199;47.590;8.300;2023-04-24T06:36:59;14.20;71.70
30594;DHT22;33199;47.590;8.300;2023-04-24T06:39:25;14.20;71.70
30594;DHT22;33199;47.590;8.300;2023-04-24T06:41:51;14.10;71.60
30594;DHT22;33199;47.590;8.300;2023-04-24T06:44:16;14.20;71.70
30594;DHT22;33199;47.590;8.300;2023-04-24T06:46:42;14.10;70.60
30594;DHT22;33199;47.590;8.300;2023-04-24T06:49:08;14.10;69.00
30594;DHT22;33199;47.590;8.300;2023-04-24T06:51:33;14.00;68.90
30594;DHT22;33199;47.590;8.300;2023-04-24T06:53:59;13.90;69.40
30594;DHT22;33199;47.590;8.300;2023-04-24T06:56:25;13.90;69.80
30594;DHT22;33199;47.590;8.300;2023-04-24T06:58:51;13.90;70.00
30594;DHT22;33199;47.590;8.300;2023-04-24T07:01:17;13.90;70.10
30594;DHT22;33199;47.590;8.300;2023-04-24T07:03:43;13.90;70.10
30594;DHT22;33199;47.590;8.300;2023-04-24T07:06:09;13.90;70.20
30594;DHT22;33199;47.590;8.300;2023-04-24T07:08:36;13.90;70.30
30594;DHT22;33199;47.590;8.300;2023-04-24T07:11:02;13.90;70.30
30594;DHT22;33199;47.590;8.300;2023-04-24T07:13:28;13.90;70.40
30594;DHT22;33199;47.590;8.300;2023-04-24T07:15:54;13.90;70.50
30594;DHT22;33199;47.590;8.300;2023-04-24T07:18:21;13.90;70.50
30594;DHT22;33199;47.590;8.300;2023-04-24T07:20:47;14.00;70.90
30594;DHT22;33199;47.590;8.300;2023-04-24T07:23:12;13.90;70.90
30594;DHT22;33199;47.590;8.300;2023-04-24T07:25:38;13.90;70.70
30594;DHT22;33199;47.590;8.300;2023-04-24T07:28:04;14.00;71.00
30594;DHT22;33199;47.590;8.300;2023-04-24T07:30:31;13.90;70.90
30594;DHT22;33199;47.590;8.300;2023-04-24T07:32:58;13.90;71.70
30594;DHT22;33199;47.590;8.300;2023-04-24T07:35:24;14.00;70.90
30594;DHT22;33199;47.590;8.300;2023-04-24T07:37:52;14.00;70.90
30594;DHT22;33199;47.590;8.300;2023-04-24T07:40:18;14.00;71.00
30594;DHT22;33199;47.590;8.300;2023-04-24T07:42:44;13.90;70.90
30594;DHT22;33199;47.590;8.300;2023-04-24T07:45:09;13.90;71.00
30594;DHT22;33199;47.590;8.300;2023-04-24T07:47:35;13.90;70.90
30594;DHT22;33199;47.590;8.300;2023-04-24T07:50:03;13.90;71.00
30594;DHT22;33199;47.590;8.300;2023-04-24T07:52:28;13.90;71.00
30594;DHT22;33199;47.590;8.300;2023-04-24T07:54:55;13.90;71.00
30594;DHT22;33199;47.590;8.300;2023-04-24T07:57:24;13.90;71.00
30594;DHT22;33199;47.590;8.300;2023-04-24T07:59:50;13.90;71.00
30594;DHT22;33199;47.590;8.300;2023-04-24T08:02:16;13.90;71.00
30594;DHT22;33199;47.590;8.300;2023-04-24T08:04:41;13.90;71.10
30594;DHT22;33199;47.590;8.300;2023-04-24T08:07:07;13.90;71.00
30594;DHT22;33199;47.590;8.300;2023-04-24T08:09:33;13.90;71.00
30594;DHT22;33199;47.590;8.300;2023-04-24T08:11:59;13.90;71.10
30594;DHT22;33199;47.590;8.300;2023-04-24T08:14:25;13.90;71.00
30594;DHT22;33199;47.590;8.300;2023-04-24T08:16:50;13.90;71.10
30594;DHT22;33199;47.590;8.300;2023-04-24T08:19:16;13.90;71.00
30594;DHT22;33199;47.590;8.300;2023-04-24T08:21:41;13.90;71.10
30594;DHT22;33199;47.590;8.300;2023-04-24T08:24:07;13.90;71.00
30594;DHT22;33199;47.590;8.300;2023-04-24T08:26:33;13.90;71.00
30594;DHT22;33199;47.590;8.300;2023-04-24T08:28:59;13.90;71.00
30594;DHT22;33199;47.590;8.300;2023-04-24T08:31:25;13.90;71.00
30594;DHT22;33199;47.590;8.300;2023-04-24T08:33:51;13.80;71.00
30594;DHT22;33199;47.590;8.300;2023-04-24T08:36:17;13.90;71.00
30594;DHT22;33199;47.590;8.300;2023-04-24T08:38:42;13.90;71.00
30594;DHT22;33199;47.590;8.300;2023-04-24T08:41:09;13.80;70.90
30594;DHT22;33199;47.590;8.300;2023-04-24T08:43:35;13.90;71.00
30594;DHT22;33199;47.590;8.300;2023-04-24T08:46:04;13.80;70.90
30594;DHT22;33199;47.590;8.300;2023-04-24T08:48:30;13.80;71.00
30594;DHT22;33199;47.590;8.300;2023-04-24T08:50:57;13.80;71.00
30594;DHT22;33199;47.590;8.300;2023-04-24T08:53:25;13.80;71.00
30594;DHT22;33199;47.590;8.300;2023-04-24T08:55:51;13.80;71.00
30594;DHT22;33199;47.590;8.300;2023-04-24T08:58:18;13.80;71.00
30594;DHT22;33199;47.590;8.300;2023-04-24T09:00:44;13.80;71.00
30594;DHT22;33199;47.590;8.300;2023-04-24T09:03:16;13.80;71.00
30594;DHT22;33199;47.590;8.300;2023-04-24T09:05:47;13.80;71.00
30594;DHT22;33199;47.590;8.300;2023-04-24T09:08:13;13.80;71.10
30594;DHT22;33199;47.590;8.300;2023-04-24T09:10:40;13.80;71.10
30594;DHT22;33199;47.590;8.300;2023-04-24T09:13:06;13.80;71.10
30594;DHT22;33199;47.590;8.300;2023-04-24T09:15:34;13.80;71.00
30594;DHT22;33199;47.590;8.300;2023-04-24T09:18:01;13.80;71.00
30594;DHT22;33199;47.590;8.300;2023-04-24T09:20:27;13.80;71.00
30594;DHT22;33199;47.590;8.300;2023-04-24T09:22:57;13.80;70.90
30594;DHT22;33199;47.590;8.300;2023-04-24T09:25:32;13.80;70.90
30594;DHT22;33199;47.590;8.300;2023-04-24T09:28:03;13.80;70.90
30594;DHT22;33199;47.590;8.300;2023-04-24T09:30:29;13.80;71.00
30594;DHT22;33199;47.590;8.300;2023-04-24T09:33:16;13.80;71.00
30594;DHT22;33199;47.590;8.300;2023-04-24T09:35:42;13.80;71.00
30594;DHT22;33199;47.590;8.300;2023-04-24T09:38:11;13.80;71.00
30594;DHT22;33199;47.590;8.300;2023-04-24T09:40:36;13.80;70.90
30594;DHT22;33199;47.590;8.300;2023-04-24T09:43:02;13.80;70.90
30594;DHT22;33199;47.590;8.300;2023-04-24T09:45:38;13.80;70.90
30594;DHT22;33199;47.590;8.300;2023-04-24T09:48:05;13.80;70.90
30594;DHT22;33199;47.590;8.300;2023-04-24T09:50:31;13.80;71.00
30594;DHT22;33199;47.590;8.300;2023-04-24T09:52:59;13.80;71.00
30594;DHT22;33199;47.590;8.300;2023-04-24T09:55:26;13.80;70.90
30594;DHT22;33199;47.590;8.300;2023-04-24T09:57:53;13.80;70.90
30594;DHT22;33199;47.590;8.300;2023-04-24T10:00:33;13.80;71.00
30594;DHT22;33199;47.590;8.300;2023-04-24T10:03:04;13.80;71.00
30594;DHT22;33199;47.590;8.300;2023-04-24T10:05:36;13.80;71.00
30594;DHT22;33199;47.590;8.300;2023-04-24T10:08:04;13.80;71.00
30594;DHT22;33199;47.590;8.300;2023-04-24T10:10:41;13.80;71.00
30594;DHT22;33199;47.590;8.300;2023-04-24T10:13:11;13.80;70.80
30594;DHT22;33199;47.590;8.300;2023-04-24T10:15:38;13.80;70.90
30594;DHT22;33199;47.590;8.300;2023-04-24T10:18:08;13.80;70.90
30594;DHT22;33199;47.590;8.300;2023-04-24T10:20:36;13.80;70.80
30594;DHT22;33199;47.590;8.300;2023-04-24T10:23:02;13.80;70.70
30594;DHT22;33199;47.590;8.300;2023-04-24T10:25:30;13.80;70.80
30594;DHT22;33199;47.590;8.300;2023-04-24T10:27:57;13.80;70.70
30594;DHT22;33199;47.590;8.300;2023-04-24T10:30:25;13.80;70.60
30594;DHT22;33199;47.590;8.300;2023-04-24T10:32:51;13.80;70.70
30594;DHT22;33199;47.590;8.300;2023-04-24T10:35:18;13.80;70.70
30594;DHT22;33199;47.590;8.300;2023-04-24T10:37:56;13.80;70.70
30594;DHT22;33199;47.590;8.300;2023-04-24T10:40:40;13.80;70.70
30594;DHT22;33199;47.590;8.300;2023-04-24T10:43:07;13.80;70.80
30594;DHT22;33199;47.590;8.300;2023-04-24T10:45:37;13.80;70.80
30594;DHT22;33199;47.590;8.300;2023-04-24T10:48:08;13.80;70.80
30594;DHT22;33199;47.590;8.300;2023-04-24T10:50:46;13.80;70.80
30594;DHT22;33199;47.590;8.300;2023-04-24T10:53:17;13.80;70.60
30594;DHT22;33199;47.590;8.300;2023-04-24T10:55:51;13.80;70.70
30594;DHT22;33199;47.590;8.300;2023-04-24T10:58:43;13.80;70.70
30594;DHT22;33199;47.590;8.300;2023-04-24T11:01:24;13.80;70.70
30594;DHT22;33199;47.590;8.300;2023-04-24T11:03:54;13.80;70.60
30594;DHT22;33199;47.590;8.300;2023-04-24T11:06:35;13.80;70.60
30594;DHT22;33199;47.590;8.300;2023-04-24T11:09:09;13.80;70.70
30594;DHT22;33199;47.590;8.300;2023-04-24T11:11:38;13.80;70.60
30594;DHT22;33199;47.590;8.300;2023-04-24T11:14:07;13.70;70.60
30594;DHT22;33199;47.590;8.300;2023-04-24T11:19:10;13.80;70.70
30594;DHT22;33199;47.590;8.300;2023-04-24T11:21:44;13.80;70.50
30594;DHT22;33199;47.590;8.300;2023-04-24T11:26:50;13.80;70.50
30594;DHT22;33199;47.590;8.300;2023-04-24T11:29:16;13.80;70.50
30594;DHT22;33199;47.590;8.300;2023-04-24T11:31:44;13.80;70.50
30594;DHT22;33199;47.590;8.300;2023-04-24T11:34:16;13.70;70.60
30594;DHT22;33199;47.590;8.300;2023-04-24T11:36:46;13.80;70.70
30594;DHT22;33199;47.590;8.300;2023-04-24T11:39:13;13.80;70.60
30594;DHT22;33199;47.590;8.300;2023-04-24T11:41:39;13.70;70.60
30594;DHT22;33199;47.590;8.300;2023-04-24T11:44:07;13.80;70.60
30594;DHT22;33199;47.590;8.300;2023-04-24T11:46:33;13.80;70.50
30594;DHT22;33199;47.590;8.300;2023-04-24T11:48:59;13.80;70.60
30594;DHT22;33199;47.590;8.300;2023-04-24T11:51:26;13.70;71.30
30594;DHT22;33199;47.590;8.300;2023-04-24T11:53:53;13.70;70.60
30594;DHT22;33199;47.590;8.300;2023-04-24T11:56:21;13.70;70.50
30594;DHT22;33199;47.590;8.300;2023-04-24T11:58:47;13.70;70.60
30594;DHT22;33199;47.590;8.300;2023-04-24T12:01:12;13.70;70.60
30594;DHT22;33199;47.590;8.300;2023-04-24T12:03:38;13.80;70.60
30594;DHT22;33199;47.590;8.300;2023-04-24T12:06:07;13.80;70.70
30594;DHT22;33199;47.590;8.300;2023-04-24T12:08:35;13.70;70.50
30594;DHT22;33199;47.590;8.300;2023-04-24T12:11:04;13.80;70.60
30594;DHT22;33199;47.590;8.300;2023-04-24T12:13:30;13.80;70.50
30594;DHT22;33199;47.590;8.300;2023-04-24T12:16:01;13.80;70.50
30594;DHT22;33199;47.590;8.300;2023-04-24T12:18:27;13.80;70.50
30594;DHT22;33199;47.590;8.300;2023-04-24T12:20:52;13.80;70.40
30594;DHT22;33199;47.590;8.300;2023-04-24T12:23:37;13.80;70.40
30594;DHT22;33199;47.590;8.300;2023-04-24T12:26:05;13.80;70.40
30594;DHT22;33199;47.590;8.300;2023-04-24T12:28:38;13.80;70.50
30594;DHT22;33199;47.590;8.300;2023-04-24T12:31:06;13.80;70.40
30594;DHT22;33199;47.590;8.300;2023-04-24T12:33:34;13.80;70.20
30594;DHT22;33199;47.590;8.300;2023-04-24T12:36:00;13.70;70.50
30594;DHT22;33199;47.590;8.300;2023-04-24T12:38:28;13.80;70.40
30594;DHT22;33199;47.590;8.300;2023-04-24T12:41:30;13.80;70.20
30594;DHT22;33199;47.590;8.300;2023-04-24T12:43:53;13.80;70.10
30594;DHT22;33199;47.590;8.300;2023-04-24T12:46:19;13.80;70.10
30594;DHT22;33199;47.590;8.300;2023-04-24T12:48:45;13.80;70.20
30594;DHT22;33199;47.590;8.300;2023-04-24T12:51:10;13.80;70.30
30594;DHT22;33199;47.590;8.300;2023-04-24T12:53:36;13.80;70.20
30594;DHT22;33199;47.590;8.300;2023-04-24T12:56:01;13.70;70.20
30594;DHT22;33199;47.590;8.300;2023-04-24T12:58:27;13.70;70.20
30594;DHT22;33199;47.590;8.300;2023-04-24T13:00:53;13.80;70.50
30594;DHT22;33199;47.590;8.300;2023-04-24T13:03:18;13.80;70.20
30594;DHT22;33199;47.590;8.300;2023-04-24T13:05:45;13.80;70.00
30594;DHT22;33199;47.590;8.300;2023-04-24T13:08:10;13.80;70.00
30594;DHT22;33199;47.590;8.300;2023-04-24T13:10:36;13.80;70.00
30594;DHT22;33199;47.590;8.300;2023-04-24T13:13:02;13.80;69.90
30594;DHT22;33199;47.590;8.300;2023-04-24T13:15:28;13.80;69.90
30594;DHT22;33199;47.590;8.300;2023-04-24T13:17:54;13.80;70.00
30594;DHT22;33199;47.590;8.300;2023-04-24T13:20:20;13.80;69.90
30594;DHT22;33199;47.590;8.300;2023-04-24T13:22:46;13.80;69.90
30594;DHT22;33199;47.590;8.300;2023-04-24T13:25:11;13.80;69.90
30594;DHT22;33199;47.590;8.300;2023-04-24T13:27:40;13.80;70.00
30594;DHT22;33199;47.590;8.300;2023-04-24T13:30:06;13.80;70.00
30594;DHT22;33199;47.590;8.300;2023-04-24T13:32:32;13.80;70.00
30594;DHT22;33199;47.590;8.300;2023-04-24T13:34:58;13.80;69.90
30594;DHT22;33199;47.590;8.300;2023-04-24T13:37:24;13.80;69.90
30594;DHT22;33199;47.590;8.300;2023-04-24T13:39:50;13.80;69.90
30594;DHT22;33199;47.590;8.300;2023-04-24T13:42:16;13.80;69.90
30594;DHT22;33199;47.590;8.300;2023-04-24T13:44:41;13.80;69.90
30594;DHT22;33199;47.590;8.300;2023-04-24T13:47:07;13.80;69.90
30594;DHT22;33199;47.590;8.300;2023-04-24T13:49:32;13.80;70.00
30594;DHT22;33199;47.590;8.300;2023-04-24T13:51:58;13.80;70.00
30594;DHT22;33199;47.590;8.300;2023-04-24T13:54:24;13.80;69.90
30594;DHT22;33199;47.590;8.300;2023-04-24T13:56:51;13.80;70.00
30594;DHT22;33199;47.590;8.300;2023-04-24T13:59:17;13.80;69.90
30594;DHT22;33199;47.590;8.300;2023-04-24T14:01:44;13.80;70.00
30594;DHT22;33199;47.590;8.300;2023-04-24T14:04:10;13.80;70.00
30594;DHT22;33199;47.590;8.300;2023-04-24T14:06:36;13.80;70.00
30594;DHT22;33199;47.590;8.300;2023-04-24T14:09:01;13.80;70.00
30594;DHT22;33199;47.590;8.300;2023-04-24T14:11:27;13.80;69.90
30594;DHT22;33199;47.590;8.300;2023-04-24T14:13:54;13.80;69.90
30594;DHT22;33199;47.590;8.300;2023-04-24T14:16:21;13.80;69.90
30594;DHT22;33199;47.590;8.300;2023-04-24T14:18:47;13.80;69.70
30594;DHT22;33199;47.590;8.300;2023-04-24T14:21:13;13.80;69.70
30594;DHT22;33199;47.590;8.300;2023-04-24T14:23:38;13.80;69.70
30594;DHT22;33199;47.590;8.300;2023-04-24T14:26:04;13.80;69.80
30594;DHT22;33199;47.590;8.300;2023-04-24T14:28:30;13.80;69.80
30594;DHT22;33199;47.590;8.300;2023-04-24T14:30:55;13.80;69.80
30594;DHT22;33199;47.590;8.300;2023-04-24T14:33:21;13.80;69.90
30594;DHT22;33199;47.590;8.300;2023-04-24T14:35:46;13.80;69.90
30594;DHT22;33199;47.590;8.300;2023-04-24T14:38:12;13.80;70.00
30594;DHT22;33199;47.590;8.300;2023-04-24T14:40:38;13.80;69.90
30594;DHT22;33199;47.590;8.300;2023-04-24T14:43:04;13.80;69.80
30594;DHT22;33199;47.590;8.300;2023-04-24T14:45:30;13.80;69.80
30594;DHT22;33199;47.590;8.300;2023-04-24T14:47:56;13.80;70.00
30594;DHT22;33199;47.590;8.300;2023-04-24T14:50:21;13.80;69.70
30594;DHT22;33199;47.590;8.300;2023-04-24T14:52:47;13.80;69.70
30594;DHT22;33199;47.590;8.300;2023-04-24T14:55:13;13.80;69.60
30594;DHT22;33199;47.590;8.300;2023-04-24T14:57:39;13.80;69.70
30594;DHT22;33199;47.590;8.300;2023-04-24T15:00:06;13.80;69.90
30594;DHT22;33199;47.590;8.300;2023-04-24T15:02:34;13.90;69.80
30594;DHT22;33199;47.590;8.300;2023-04-24T15:04:59;13.80;69.70
30594;DHT22;33199;47.590;8.300;2023-04-24T15:07:25;13.80;69.80
30594;DHT22;33199;47.590;8.300;2023-04-24T15:09:51;13.80;69.90
30594;DHT22;33199;47.590;8.300;2023-04-24T15:12:16;13.80;70.00
30594;DHT22;33199;47.590;8.300;2023-04-24T15:14:42;13.90;70.00
30594;DHT22;33199;47.590;8.300;2023-04-24T15:17:08;13.90;70.00
30594;DHT22;33199;47.590;8.300;2023-04-24T15:19:33;13.80;69.80
30594;DHT22;33199;47.590;8.300;2023-04-24T15:21:59;13.90;69.70
30594;DHT22;33199;47.590;8.300;2023-04-24T15:24:25;13.80;69.70
30594;DHT22;33199;47.590;8.300;2023-04-24T15:26:50;13.90;69.70
30594;DHT22;33199;47.590;8.300;2023-04-24T15:29:16;13.90;69.60
30594;DHT22;33199;47.590;8.300;2023-04-24T15:31:41;13.80;69.50